Terminal Aerodrome Forecast
Issued by NWS

Home | Current Version | Previous Version | Text Only | Print | Product List | Glossary On
Versions: 1 2 3 4 5 6 7 8 9 10 11 12
000
FTUS42 TJSJ 041720
TAFISX
TAF
TISX 041720Z 0418/0518 10015G23KT P6SM VCSH SCT035
     FM042300 08009KT P6SM FEW030
     FM051200 10013KT P6SM FEW030=

USA.gov is the U.S. government's official web portal to all federal, state and local government web resources and services.